createdAt,value
2022-11-25T00:01:33.161Z,6.62
2022-11-25T00:04:01.626Z,6.20
2022-11-25T00:06:32.558Z,4.90
2022-11-25T00:09:06.712Z,5.95
2022-11-25T00:11:42.966Z,5.45
2022-11-25T00:14:14.572Z,5.35
2022-11-25T00:16:48.041Z,4.33
2022-11-25T00:19:12.311Z,4.53
2022-11-25T00:21:40.431Z,4.10
2022-11-25T00:24:08.288Z,4.20
2022-11-25T00:26:36.747Z,3.50
2022-11-25T00:29:07.737Z,4.50
2022-11-25T00:31:39.435Z,3.55
2022-11-25T00:34:07.510Z,4.17
2022-11-25T00:36:37.608Z,3.98
2022-11-25T00:39:12.794Z,4.37
2022-11-25T00:41:59.368Z,4.45
2022-11-25T00:44:38.119Z,3.60
2022-11-25T00:47:16.013Z,3.58
2022-11-25T00:49:51.201Z,3.47
2022-11-25T00:52:25.780Z,3.25
2022-11-25T00:54:54.244Z,2.70
2022-11-25T00:57:23.709Z,2.70
2022-11-25T00:59:51.705Z,2.92
2022-11-25T01:02:21.772Z,3.37
2022-11-25T01:04:49.890Z,3.35
2022-11-25T01:07:18.649Z,2.70
2022-11-25T01:09:47.537Z,2.17
2022-11-25T01:12:15.316Z,2.62
2022-11-25T01:14:42.830Z,2.30
2022-11-25T01:17:10.519Z,2.60
2022-11-25T01:19:39.785Z,2.60
2022-11-25T01:22:09.565Z,2.52
2022-11-25T01:24:37.789Z,2.67
2022-11-25T01:27:05.760Z,2.33
2022-11-25T01:29:33.380Z,2.10
2022-11-25T01:32:01.192Z,2.00
2022-11-25T01:34:30.730Z,1.90
2022-11-25T01:36:58.633Z,1.95
2022-11-25T01:39:32.536Z,1.72
2022-11-25T01:41:57.448Z,1.72
2022-11-25T01:44:28.379Z,1.65
2022-11-25T01:47:23.099Z,1.92
2022-11-25T01:49:59.737Z,1.62
2022-11-25T01:52:35.424Z,2.70
2022-11-25T01:55:22.933Z,2.85
2022-11-25T01:58:01.679Z,3.60
2022-11-25T02:00:29.476Z,2.70
2022-11-25T02:02:58.963Z,2.58
2022-11-25T02:05:44.624Z,2.80
2022-11-25T02:08:12.965Z,3.00
2022-11-25T02:10:42.183Z,3.05
2022-11-25T02:13:11.278Z,2.87
2022-11-25T02:15:39.055Z,3.15
2022-11-25T02:18:07.258Z,3.58
2022-11-25T02:20:35.832Z,5.22
2022-11-25T02:23:25.215Z,4.00
2022-11-25T02:25:55.053Z,3.62
2022-11-25T02:28:27.137Z,3.45
2022-11-25T02:30:55.099Z,4.15
2022-11-25T02:33:24.611Z,4.40
2022-11-25T02:35:58.990Z,4.50
2022-11-25T02:38:41.378Z,3.67
2022-11-25T02:41:17.955Z,4.05
2022-11-25T02:43:47.758Z,4.20
2022-11-25T02:46:22.268Z,3.55
2022-11-25T02:51:22.185Z,3.27
2022-11-25T02:53:51.455Z,3.70
2022-11-25T02:56:24.209Z,3.37
2022-11-25T02:58:52.146Z,3.37
2022-11-25T03:01:20.681Z,3.30
2022-11-25T03:03:50.112Z,2.83
2022-11-25T03:06:18.072Z,2.83
2022-11-25T03:08:45.959Z,2.80
2022-11-25T03:11:14.010Z,2.65
2022-11-25T03:13:42.006Z,3.25
2022-11-25T03:16:10.281Z,3.37
2022-11-25T03:18:38.188Z,2.80
2022-11-25T03:21:07.078Z,2.98
2022-11-25T03:23:35.842Z,2.50
2022-11-25T03:26:07.410Z,2.45
2022-11-25T03:28:35.270Z,2.60
2022-11-25T03:31:04.424Z,2.12
2022-11-25T03:33:32.300Z,2.77
2022-11-25T03:36:00.093Z,3.90
2022-11-25T03:38:27.873Z,2.45
2022-11-25T03:40:55.702Z,2.30
2022-11-25T03:43:23.437Z,2.30
2022-11-25T03:45:52.176Z,2.65
2022-11-25T03:48:19.838Z,2.45
2022-11-25T03:50:49.027Z,1.90
2022-11-25T03:53:16.740Z,2.12
2022-11-25T03:55:47.476Z,3.15
2022-11-25T03:58:17.114Z,2.65
2022-11-25T04:00:44.763Z,2.90
2022-11-25T04:03:13.263Z,3.00
2022-11-25T04:05:41.786Z,3.25
2022-11-25T04:08:09.491Z,3.33
2022-11-25T04:10:37.894Z,4.20
2022-11-25T04:13:06.443Z,4.10
2022-11-25T04:15:36.284Z,3.83
2022-11-25T04:18:04.237Z,3.33
2022-11-25T04:20:32.183Z,4.30
2022-11-25T04:23:01.577Z,3.77
2022-11-25T04:25:29.581Z,3.10
2022-11-25T04:27:58.406Z,3.35
2022-11-25T04:30:28.701Z,3.33
2022-11-25T04:32:56.618Z,4.70
2022-11-25T04:35:24.960Z,3.00
2022-11-25T04:37:54.874Z,2.90
2022-11-25T04:40:23.239Z,4.00
2022-11-25T04:42:59.328Z,4.35
2022-11-25T04:45:24.291Z,4.15
2022-11-25T04:47:53.935Z,6.00
2022-11-25T04:50:24.085Z,3.92
2022-11-25T04:52:53.809Z,4.45
2022-11-25T04:55:21.729Z,5.05
2022-11-25T04:57:49.742Z,4.90
2022-11-25T05:00:19.288Z,5.12
2022-11-25T05:02:47.571Z,4.65
2022-11-25T05:05:17.961Z,5.97
2022-11-25T05:07:46.021Z,6.72
2022-11-25T05:10:14.289Z,4.72
2022-11-25T05:12:44.135Z,4.10
2022-11-25T05:15:30.315Z,6.30
2022-11-25T05:17:58.899Z,5.30
2022-11-25T05:20:28.580Z,4.90
2022-11-25T05:22:56.224Z,3.83
2022-11-25T05:25:24.331Z,4.37
2022-11-25T05:27:53.976Z,19.20
2022-11-25T05:30:21.641Z,3.60
2022-11-25T05:32:49.189Z,4.53
2022-11-25T05:35:16.907Z,4.50
2022-11-25T05:37:45.007Z,4.80
2022-11-25T05:40:13.846Z,7.47
2022-11-25T05:42:55.724Z,7.62
2022-11-25T05:45:23.747Z,9.58
2022-11-25T05:47:51.763Z,10.40
2022-11-25T05:50:21.406Z,7.30
2022-11-25T05:52:50.763Z,7.08
2022-11-25T05:55:18.679Z,6.10
2022-11-25T05:57:48.286Z,6.22
2022-11-25T06:00:16.655Z,12.47
2022-11-25T06:02:51.147Z,7.37
2022-11-25T06:05:19.768Z,6.30
2022-11-25T06:07:48.137Z,7.25
2022-11-25T06:10:17.823Z,8.60
2022-11-25T06:12:45.677Z,11.35
2022-11-25T06:15:15.271Z,9.80
2022-11-25T06:17:43.284Z,7.58
2022-11-25T06:20:16.169Z,8.55
2022-11-25T06:22:43.857Z,7.95
2022-11-25T06:25:14.579Z,11.40
2022-11-25T06:28:11.489Z,8.40
2022-11-25T06:30:13.760Z,11.05
2022-11-25T06:32:43.338Z,10.43
2022-11-25T06:35:13.223Z,15.23
2022-11-25T06:37:43.175Z,9.33
2022-11-25T06:40:11.609Z,10.40
2022-11-25T06:42:41.930Z,12.18
2022-11-25T06:45:10.586Z,10.43
2022-11-25T06:47:38.660Z,11.38
2022-11-25T06:50:07.943Z,10.15
2022-11-25T06:52:37.196Z,9.73
2022-11-25T06:55:06.031Z,10.32
2022-11-25T06:57:34.453Z,10.50
2022-11-25T07:00:03.294Z,11.20
2022-11-25T07:02:36.164Z,10.70
2022-11-25T07:05:01.024Z,12.00
2022-11-25T07:07:29.161Z,11.08
2022-11-25T07:09:57.875Z,11.18
2022-11-25T07:12:30.059Z,12.00
2022-11-25T07:14:59.274Z,10.10
2022-11-25T07:17:27.590Z,9.68
2022-11-25T07:19:55.495Z,10.72
2022-11-25T07:22:23.341Z,11.15
2022-11-25T07:24:51.442Z,10.90
2022-11-25T07:27:19.539Z,11.48
2022-11-25T07:30:18.851Z,11.00
2022-11-25T07:32:18.557Z,10.00
2022-11-25T07:34:46.382Z,11.60
2022-11-25T07:37:14.449Z,11.00
2022-11-25T07:39:43.676Z,16.40
2022-11-25T07:42:11.843Z,12.18
2022-11-25T07:44:49.657Z,10.45
2022-11-25T07:49:57.656Z,11.40
2022-11-25T07:52:30.567Z,10.15
2022-11-25T07:54:59.392Z,9.95
2022-11-25T07:57:36.521Z,9.83
2022-11-25T08:00:08.388Z,10.90
2022-11-25T08:02:42.365Z,10.82
2022-11-25T08:05:13.613Z,9.50
2022-11-25T08:07:42.659Z,8.30
2022-11-25T08:10:11.304Z,7.30
2022-11-25T08:12:41.087Z,9.78
2022-11-25T08:15:10.936Z,9.60
2022-11-25T08:17:40.569Z,9.58
2022-11-25T08:20:09.461Z,10.53
2022-11-25T08:22:37.584Z,10.72
2022-11-25T08:25:06.749Z,9.13
2022-11-25T08:27:34.466Z,8.50
2022-11-25T08:30:02.386Z,10.08
2022-11-25T08:32:30.494Z,8.80
2022-11-25T08:34:59.485Z,8.48
2022-11-25T08:37:27.315Z,12.65
2022-11-25T08:39:56.113Z,9.60
2022-11-25T08:42:24.473Z,9.23
2022-11-25T08:44:55.417Z,9.83
2022-11-25T08:47:25.092Z,8.08
2022-11-25T08:49:55.304Z,7.10
2022-11-25T08:52:25.943Z,6.95
2022-11-25T08:54:55.101Z,10.35
2022-11-25T08:57:23.324Z,7.97
2022-11-25T08:59:53.945Z,6.95
2022-11-25T09:02:24.534Z,6.78
2022-11-25T09:04:53.896Z,5.25
2022-11-25T09:07:26.095Z,8.55
2022-11-25T09:09:53.414Z,9.28
2022-11-25T09:12:28.575Z,7.60
2022-11-25T09:15:08.191Z,6.58
2022-11-25T09:17:48.910Z,6.78
2022-11-25T09:20:20.740Z,7.40
2022-11-25T09:22:48.541Z,9.10
2022-11-25T09:25:25.519Z,8.43
2022-11-25T09:27:53.791Z,6.08
2022-11-25T09:30:22.181Z,5.67
2022-11-25T09:32:54.351Z,7.92
2022-11-25T09:35:24.116Z,6.72
2022-11-25T09:37:54.218Z,7.47
2022-11-25T09:40:30.641Z,7.62
2022-11-25T09:43:37.953Z,11.97
2022-11-25T09:46:43.450Z,6.55
2022-11-25T09:49:58.056Z,6.65
2022-11-25T09:52:48.992Z,6.25
2022-11-25T09:55:23.650Z,5.62
2022-11-25T09:58:12.594Z,7.40
2022-11-25T10:00:44.499Z,7.42
2022-11-25T10:03:42.431Z,5.58
2022-11-25T10:06:28.173Z,5.22
2022-11-25T10:09:07.992Z,6.08
2022-11-25T10:12:07.609Z,5.75
2022-11-25T10:14:40.999Z,7.80
2022-11-25T10:17:44.372Z,6.78
2022-11-25T10:20:25.463Z,6.33
2022-11-25T10:23:19.759Z,6.40
2022-11-25T10:26:03.026Z,4.83
2022-11-25T10:28:41.264Z,4.83
2022-11-25T10:31:41.036Z,5.33
2022-11-25T10:34:48.368Z,6.33
2022-11-25T10:37:33.217Z,4.60
2022-11-25T10:40:01.514Z,4.33
2022-11-25T10:42:31.890Z,4.60
2022-11-25T10:45:01.501Z,4.90
2022-11-25T10:47:50.063Z,5.30
2022-11-25T10:50:51.651Z,6.10
2022-11-25T10:53:26.874Z,6.42
2022-11-25T10:56:03.925Z,6.50
2022-11-25T10:58:38.214Z,8.20
2022-11-25T11:01:22.482Z,11.08
2022-11-25T11:04:07.368Z,7.95
2022-11-25T11:06:43.727Z,7.50
2022-11-25T11:09:37.582Z,9.65
2022-11-25T11:12:27.105Z,6.95
2022-11-25T11:15:16.693Z,6.00
2022-11-25T11:17:44.543Z,5.35
2022-11-25T11:20:25.529Z,4.75
2022-11-25T11:23:08.928Z,5.60
2022-11-25T11:25:38.000Z,4.67
2022-11-25T11:28:34.437Z,6.50
2022-11-25T11:31:10.021Z,7.35
2022-11-25T11:34:01.770Z,6.05
2022-11-25T11:37:11.594Z,8.90
2022-11-25T11:40:25.001Z,7.10
2022-11-25T11:43:45.869Z,5.30
2022-11-25T11:46:34.615Z,7.37
2022-11-25T11:49:37.722Z,6.33
2022-11-25T11:52:38.652Z,7.00
2022-11-25T11:55:26.977Z,7.67
2022-11-25T11:58:12.600Z,7.00
2022-11-25T12:00:58.346Z,6.42
2022-11-25T12:03:34.380Z,5.37
2022-11-25T12:06:05.993Z,8.10
2022-11-25T12:08:42.196Z,5.95
2022-11-25T12:11:18.684Z,5.28
2022-11-25T12:14:15.390Z,4.75
2022-11-25T12:16:55.056Z,9.98
2022-11-25T12:19:43.227Z,8.53
2022-11-25T12:22:25.306Z,8.03
2022-11-25T12:25:01.587Z,11.30
2022-11-25T12:27:56.380Z,6.50
2022-11-25T12:30:32.482Z,6.03
2022-11-25T12:33:13.433Z,10.88
2022-11-25T12:36:14.287Z,12.75
2022-11-25T12:38:56.382Z,8.35
2022-11-25T12:41:43.723Z,8.10
2022-11-25T12:44:32.109Z,7.17
2022-11-25T12:47:01.378Z,6.40
2022-11-25T12:49:32.705Z,7.53
2022-11-25T12:52:23.824Z,5.83
2022-11-25T12:55:23.858Z,8.75
2022-11-25T12:58:23.177Z,9.65
2022-11-25T13:01:11.406Z,7.17
2022-11-25T13:04:10.353Z,8.88
2022-11-25T13:07:00.320Z,6.50
2022-11-25T13:09:56.341Z,6.65
2022-11-25T13:12:52.909Z,8.65
2022-11-25T13:15:29.290Z,6.92
2022-11-25T13:18:02.344Z,8.95
2022-11-25T13:20:35.779Z,9.63
2022-11-25T13:23:14.625Z,9.63
2022-11-25T13:25:45.836Z,11.35
2022-11-25T13:28:37.877Z,9.95
2022-11-25T13:31:27.081Z,11.18
2022-11-25T13:34:08.741Z,14.13
2022-11-25T13:36:55.459Z,15.18
2022-11-25T13:39:34.849Z,12.15
2022-11-25T13:42:22.824Z,11.75
2022-11-25T13:44:58.756Z,13.98
2022-11-25T13:47:48.545Z,10.82
2022-11-25T13:50:22.644Z,12.35
2022-11-25T13:53:17.767Z,14.00
2022-11-25T13:55:45.961Z,10.68
2022-11-25T13:58:24.656Z,14.58
2022-11-25T14:01:27.979Z,13.85
2022-11-25T14:03:56.912Z,14.00
2022-11-25T14:06:48.152Z,16.60
2022-11-25T14:09:49.966Z,17.52
2022-11-25T14:12:58.902Z,10.68
2022-11-25T14:15:36.374Z,10.63
2022-11-25T14:18:36.857Z,13.32
2022-11-25T14:21:08.653Z,14.15
2022-11-25T14:23:45.804Z,14.60
2022-11-25T14:26:50.233Z,12.50
2022-11-25T14:29:17.478Z,12.58
2022-11-25T14:31:52.939Z,17.70
2022-11-25T14:34:40.473Z,13.65
2022-11-25T14:37:31.901Z,15.68
2022-11-25T14:40:07.938Z,16.77
2022-11-25T14:42:41.775Z,13.58
2022-11-25T14:45:29.327Z,14.20
2022-11-25T14:47:57.697Z,13.62
2022-11-25T14:50:34.866Z,16.55
2022-11-25T14:52:56.820Z,12.85
2022-11-25T14:55:30.371Z,18.60
2022-11-25T14:57:59.286Z,19.12
2022-11-25T15:00:27.396Z,18.17
2022-11-25T15:03:01.999Z,17.62
2022-11-25T15:05:48.422Z,17.45
2022-11-25T15:09:05.406Z,13.62
2022-11-25T15:12:00.789Z,10.18
2022-11-25T15:14:36.089Z,10.58
2022-11-25T15:20:53.091Z,12.35
2022-11-25T15:21:10.658Z,15.68
2022-11-25T15:23:40.732Z,12.68
2022-11-25T15:26:26.662Z,13.08
2022-11-25T15:29:01.719Z,14.50
2022-11-25T15:31:33.504Z,13.85
2022-11-25T15:34:14.050Z,11.85
2022-11-25T15:36:41.977Z,11.85
2022-11-25T15:39:27.284Z,12.85
2022-11-25T15:42:18.091Z,14.55
2022-11-25T15:44:53.139Z,17.15
2022-11-25T15:47:32.060Z,20.48
2022-11-25T15:50:25.539Z,16.93
2022-11-25T15:52:57.137Z,20.85
2022-11-25T15:55:39.354Z,17.57
2022-11-25T15:58:17.668Z,16.17
2022-11-25T16:01:08.802Z,14.38
2022-11-25T16:03:36.675Z,15.55
2022-11-25T16:06:30.773Z,15.20
2022-11-25T16:09:02.688Z,15.15
2022-11-25T16:11:36.828Z,15.05
2022-11-25T16:14:28.443Z,16.50
2022-11-25T16:17:06.293Z,14.98
2022-11-25T16:19:45.534Z,14.75
2022-11-25T16:22:17.438Z,16.62
2022-11-25T16:25:01.834Z,21.77
2022-11-25T16:27:28.040Z,28.27
2022-11-25T16:30:08.097Z,25.92
2022-11-25T16:32:43.365Z,29.77
2022-11-25T16:35:17.866Z,29.07
2022-11-25T16:37:49.197Z,24.32
2022-11-25T16:40:16.698Z,26.95
2022-11-25T16:42:50.177Z,27.00
2022-11-25T16:45:21.679Z,25.55
2022-11-25T16:47:49.863Z,27.13
2022-11-25T16:50:20.488Z,28.38
2022-11-25T16:52:49.416Z,46.23
2022-11-25T16:55:17.924Z,47.48
2022-11-25T16:57:46.040Z,52.88
2022-11-25T17:00:16.461Z,51.75
2022-11-25T17:02:45.213Z,36.77
2022-11-25T17:05:23.941Z,57.58
2022-11-25T17:07:52.067Z,59.98
2022-11-25T17:10:21.021Z,45.63
2022-11-25T17:12:49.953Z,65.75
2022-11-25T17:15:23.856Z,44.93
2022-11-25T17:17:51.781Z,48.38
2022-11-25T17:20:30.671Z,50.48
2022-11-25T17:22:58.863Z,62.17
2022-11-25T17:25:32.278Z,59.38
2022-11-25T17:28:00.533Z,74.75
2022-11-25T17:30:28.658Z,78.97
2022-11-25T17:33:03.882Z,69.42
2022-11-25T17:35:31.401Z,71.00
2022-11-25T17:38:01.456Z,77.67
2022-11-25T17:40:29.267Z,70.62
2022-11-25T17:42:57.309Z,69.72
2022-11-25T17:45:28.790Z,63.63
2022-11-25T17:47:56.739Z,61.58
2022-11-25T17:50:25.791Z,55.52
2022-11-25T17:52:55.633Z,49.73
2022-11-25T17:55:23.518Z,43.65
2022-11-25T17:57:51.581Z,42.90
2022-11-25T18:00:21.712Z,40.98
2022-11-25T18:02:50.707Z,39.40
2022-11-25T18:05:28.368Z,41.53
2022-11-25T18:08:00.027Z,53.35
2022-11-25T18:10:27.875Z,59.08
2022-11-25T18:12:57.013Z,61.23
2022-11-25T18:15:34.193Z,63.52
2022-11-25T18:18:05.967Z,62.33
2022-11-25T18:20:33.968Z,66.85
2022-11-25T18:23:01.959Z,75.87
2022-11-25T18:25:32.729Z,80.83
2022-11-25T18:28:01.849Z,75.55
2022-11-25T18:30:35.504Z,81.75
2022-11-25T18:33:05.305Z,94.90
2022-11-25T18:35:36.390Z,105.90
2022-11-25T18:38:04.568Z,99.35
2022-11-25T18:40:35.499Z,98.82
2022-11-25T18:43:04.608Z,89.90
2022-11-25T18:45:38.343Z,93.07
2022-11-25T18:48:23.949Z,88.62
2022-11-25T18:50:55.520Z,85.53
2022-11-25T18:53:23.746Z,83.67
2022-11-25T18:55:51.741Z,87.82
2022-11-25T18:58:26.697Z,94.80
2022-11-25T19:01:04.971Z,89.80
2022-11-25T19:03:32.926Z,79.53
2022-11-25T19:06:02.476Z,71.75
2022-11-25T19:08:30.493Z,71.60
2022-11-25T19:10:59.526Z,71.20
2022-11-25T19:13:34.164Z,75.67
2022-11-25T19:16:08.362Z,72.50
2022-11-25T19:18:36.136Z,66.82
2022-11-25T19:21:04.051Z,67.37
2022-11-25T19:23:33.868Z,63.60
2022-11-25T19:26:07.065Z,54.08
2022-11-25T19:28:35.130Z,41.48
2022-11-25T19:31:05.013Z,47.25
2022-11-25T19:33:40.265Z,49.23
2022-11-25T19:36:13.774Z,42.23
2022-11-25T19:38:41.561Z,39.92
2022-11-25T19:41:09.259Z,46.02
2022-11-25T19:43:37.166Z,44.63
2022-11-25T19:46:05.276Z,39.13
2022-11-25T19:48:39.203Z,41.65
2022-11-25T19:51:09.096Z,42.70
2022-11-25T19:53:36.949Z,42.80
2022-11-25T19:56:06.701Z,44.13
2022-11-25T19:58:34.449Z,44.88
2022-11-25T20:01:05.811Z,50.98
2022-11-25T20:03:36.235Z,73.78
2022-11-25T20:06:05.428Z,67.17
2022-11-25T20:08:33.159Z,68.97
2022-11-25T20:11:01.072Z,64.22
2022-11-25T20:13:28.922Z,58.83
2022-11-25T20:15:58.507Z,63.75
2022-11-25T20:18:27.391Z,76.10
2022-11-25T20:21:04.759Z,61.25
2022-11-25T20:23:43.634Z,56.55
2022-11-25T20:26:20.315Z,45.75
2022-11-25T20:28:48.115Z,46.65
2022-11-25T20:31:15.891Z,41.05
2022-11-25T20:33:43.597Z,38.90
2022-11-25T20:36:15.835Z,42.48
2022-11-25T20:38:52.341Z,46.13
2022-11-25T20:41:27.489Z,47.50
2022-11-25T20:43:51.897Z,47.17
2022-11-25T20:46:23.410Z,46.98
2022-11-25T20:48:54.059Z,42.15
2022-11-25T20:51:23.394Z,45.03
2022-11-25T20:53:57.018Z,40.08
2022-11-25T20:56:27.263Z,37.85
2022-11-25T20:58:56.313Z,33.98
2022-11-25T21:01:24.621Z,33.55
2022-11-25T21:03:52.245Z,31.37
2022-11-25T21:06:30.259Z,30.30
2022-11-25T21:09:01.169Z,28.65
2022-11-25T21:11:30.942Z,28.90
2022-11-25T21:13:58.784Z,25.10
2022-11-25T21:16:27.047Z,23.07
2022-11-25T21:18:55.418Z,21.77
2022-11-25T21:21:33.290Z,23.80
2022-11-25T21:24:06.467Z,23.20
2022-11-25T21:26:34.837Z,28.38
2022-11-25T21:29:02.841Z,22.10
2022-11-25T21:31:30.647Z,21.55
2022-11-25T21:34:00.294Z,24.47
2022-11-25T21:36:30.679Z,22.07
2022-11-25T21:39:04.748Z,22.30
2022-11-25T21:41:34.200Z,23.70
2022-11-25T21:44:05.712Z,21.15
2022-11-25T21:46:34.256Z,21.95
2022-11-25T21:49:02.532Z,20.95
2022-11-25T21:51:30.198Z,27.52
2022-11-25T21:53:58.046Z,27.48
2022-11-25T21:56:31.626Z,27.48
2022-11-25T21:59:02.708Z,35.68
2022-11-25T22:01:31.046Z,33.00
2022-11-25T22:03:59.153Z,30.88
2022-11-25T22:06:30.207Z,31.55
2022-11-25T22:08:58.120Z,37.90
2022-11-25T22:11:36.640Z,28.57
2022-11-25T22:14:09.671Z,25.68
2022-11-25T22:16:37.490Z,25.45
2022-11-25T22:19:05.783Z,24.55
2022-11-25T22:21:33.518Z,23.55
2022-11-25T22:24:01.006Z,21.95
2022-11-25T22:26:31.933Z,22.75
2022-11-25T22:29:00.650Z,20.40
2022-11-25T22:31:28.552Z,22.87
2022-11-25T22:33:56.298Z,28.83
2022-11-25T22:36:36.907Z,30.12
2022-11-25T22:39:18.998Z,34.08
2022-11-25T22:41:50.838Z,38.42
2022-11-25T22:44:23.397Z,42.13
2022-11-25T22:46:51.960Z,43.75
2022-11-25T22:49:33.978Z,45.70
2022-11-25T22:52:01.910Z,41.05
2022-11-25T22:54:29.903Z,43.13
2022-11-25T22:56:57.870Z,56.02
2022-11-25T22:59:25.544Z,57.55
2022-11-25T23:01:53.370Z,47.48
2022-11-25T23:04:21.355Z,50.90
2022-11-25T23:06:49.429Z,45.17
2022-11-25T23:09:20.203Z,42.08
2022-11-25T23:11:49.085Z,45.05
2022-11-25T23:14:17.840Z,38.73
2022-11-25T23:16:46.143Z,32.05
2022-11-25T23:19:17.357Z,28.85
2022-11-25T23:21:45.842Z,27.05
2022-11-25T23:24:16.568Z,25.43
2022-11-25T23:26:44.551Z,24.77
2022-11-25T23:29:12.210Z,25.77
2022-11-25T23:31:40.157Z,23.50
2022-11-25T23:34:10.100Z,22.20
2022-11-25T23:36:45.247Z,21.27
2022-11-25T23:39:22.840Z,22.13
2022-11-25T23:41:51.145Z,20.92
2022-11-25T23:44:29.114Z,22.85
2022-11-25T23:47:01.135Z,17.32
2022-11-25T23:49:33.831Z,17.12
2022-11-25T23:52:07.738Z,18.70
2022-11-25T23:54:41.899Z,19.00
2022-11-25T23:57:18.931Z,21.80
2022-11-25T23:59:47.848Z,22.55
